Time;durP1;ratioP1;P1;durP2;ratioP2;P2;SDS_P1;SDS_P2;PMS_P1;PMS_P2;Temp;Humidity;BMP_temperature;BMP_pressure;BME280_temperature;BME280_humidity;BME280_pressure;Samples;Min_cycle;Max_cycle;Signal;HPM_P1;HPM_P2
2021/09/24 00:01:08;;;;;;;26.20;17.17;;;308.10;2304.00;;;;;;4867435;29;20029;-79
2021/09/24 00:03:35;;;;;;;29.42;17.10;;;332.80;2329.60;;;;;;4888945;29;20013;-76
2021/09/24 00:06:01;;;;;;;27.60;18.35;;;308.10;2304.00;;;;;;4874395;29;20033;-78
2021/09/24 00:08:27;;;;;;;26.85;18.30;;;308.10;2304.00;;;;;;4872880;29;20512;-78
2021/09/24 00:10:53;;;;;;;28.13;17.55;;;332.80;2329.60;;;;;;4870866;29;20034;-78
2021/09/24 00:13:19;;;;;;;28.48;18.00;;;308.10;2304.00;;;;;;4870489;29;20091;-76
2021/09/24 00:15:46;;;;;;;27.00;18.58;;;308.00;2304.00;;;;;;4865014;29;20431;-78
2021/09/24 00:18:12;;;;;;;26.85;18.15;;;308.10;2304.00;;;;;;4867754;29;20486;-78
2021/09/24 00:20:37;;;;;;;29.85;17.45;;;308.10;2304.00;;;;;;4868194;29;20025;-76
2021/09/24 00:23:04;;;;;;;30.52;18.42;;;308.00;2304.00;;;;;;4871132;29;20029;-78
2021/09/24 00:25:30;;;;;;;28.05;17.02;;;308.00;2304.00;;;;;;4869634;29;20482;-78
2021/09/24 00:27:58;;;;;;;25.98;17.45;;;308.00;2304.00;;;;;;4868230;29;20542;-75
2021/09/24 00:30:24;;;;;;;28.55;19.10;;;307.80;2304.00;;;;;;4869916;29;20081;-77
2021/09/24 00:32:51;;;;;;;34.80;19.30;;;308.00;2304.00;;;;;;4870202;29;20037;-78
2021/09/24 00:35:17;;;;;;;26.67;17.40;;;307.80;2304.00;;;;;;4868543;29;20112;-76
2021/09/24 00:37:43;;;;;;;30.58;19.25;;;307.80;2304.00;;;;;;4866975;29;20022;-77
2021/09/24 00:40:10;;;;;;;27.50;17.42;;;307.80;2304.00;;;;;;4870154;29;20036;-76
2021/09/24 00:42:37;;;;;;;29.40;19.02;;;307.60;2304.00;;;;;;4862014;29;20041;-78
2021/09/24 00:45:05;;;;;;;24.85;17.17;;;307.60;2304.00;;;;;;4870001;29;20029;-75
2021/09/24 00:47:31;;;;;;;35.80;20.52;;;307.60;2304.00;;;;;;4870979;29;20029;-76
2021/09/24 00:49:57;;;;;;;34.30;20.15;;;307.30;2304.00;;;;;;4869828;29;20021;-75
2021/09/24 00:52:24;;;;;;;31.27;20.13;;;282.50;2278.40;;;;;;4869838;29;20063;-75
2021/09/24 00:54:51;;;;;;;35.90;21.10;;;282.30;2278.40;;;;;;4868804;29;20017;-81
2021/09/24 00:57:18;;;;;;;31.23;20.40;;;282.20;2278.40;;;;;;4870113;29;20091;-77
2021/09/24 00:59:44;;;;;;;34.75;22.15;;;282.30;2278.40;;;;;;4865796;29;20031;-83
2021/09/24 01:02:10;;;;;;;33.95;20.55;;;282.10;2278.40;;;;;;4868939;29;20025;-78
2021/09/24 01:04:35;;;;;;;;;;;282.10;2278.40;;;;;;4869885;29;20142;-74
2021/09/24 01:07:02;;;;;;;32.60;19.63;;;282.00;2278.40;;;;;;4867394;29;19912;-76
2021/09/24 01:09:29;;;;;;;30.60;20.30;;;282.20;2278.40;;;;;;4869656;29;20029;-76
2021/09/24 01:11:55;;;;;;;30.65;19.33;;;282.10;2278.40;;;;;;4869825;29;20137;-77
2021/09/24 01:14:21;;;;;;;26.73;18.33;;;282.20;2278.40;;;;;;4867469;29;20418;-83
2021/09/24 01:16:47;;;;;;;29.85;18.92;;;282.40;2278.40;;;;;;4871285;29;20541;-75
2021/09/24 01:19:13;;;;;;;33.95;18.92;;;307.20;2304.00;;;;;;4868338;29;20117;-75
2021/09/24 01:21:41;;;;;;;36.00;19.90;;;307.20;2304.00;;;;;;4868267;29;20049;-81
2021/09/24 01:24:08;;;;;;;32.40;18.73;;;307.30;2304.00;;;;;;4867091;29;20018;-82
2021/09/24 01:26:34;;;;;;;29.85;19.85;;;307.30;2304.00;;;;;;4869129;29;20021;-83
2021/09/24 01:29:00;;;;;;;31.55;19.77;;;307.30;2304.00;;;;;;4867118;29;20086;-76
2021/09/24 01:31:26;;;;;;;32.13;18.02;;;307.40;2304.00;;;;;;4863876;29;20164;-81
2021/09/24 01:33:52;;;;;;;24.10;17.48;;;307.30;2304.00;;;;;;4868377;29;20040;-75
2021/09/24 01:36:18;;;;;;;30.38;17.92;;;307.40;2304.00;;;;;;4867630;29;20516;-74
2021/09/24 01:38:44;;;;;;;26.67;18.35;;;307.30;2304.00;;;;;;4863596;29;20041;-80
2021/09/24 01:41:10;;;;;;;27.65;17.65;;;307.40;2304.00;;;;;;4869111;29;20032;-75
2021/09/24 01:43:36;;;;;;;24.08;17.52;;;307.40;2304.00;;;;;;4865944;29;20475;-75
2021/09/24 01:46:04;;;;;;;27.45;19.30;;;307.40;2304.00;;;;;;4858650;29;20021;-76
2021/09/24 01:48:30;;;;;;;27.98;19.67;;;307.40;2304.00;;;;;;4864212;29;20132;-75
2021/09/24 01:50:56;;;;;;;28.80;19.42;;;282.40;2278.40;;;;;;4868104;29;20104;-78
2021/09/24 01:53:22;;;;;;;32.83;20.35;;;282.30;2278.40;;;;;;4868860;29;20453;-76
2021/09/24 01:55:48;;;;;;;25.85;18.73;;;282.30;2278.40;;;;;;4867487;29;20021;-82
2021/09/24 01:58:14;;;;;;;24.02;18.08;;;282.50;2278.40;;;;;;4868787;29;20032;-76
2021/09/24 02:00:40;;;;;;;28.85;19.42;;;282.20;2278.40;;;;;;4868752;29;20039;-79
2021/09/24 02:03:06;;;;;;;29.13;19.02;;;282.20;2278.40;;;;;;4865208;29;20386;-75
2021/09/24 02:05:32;;;;;;;;;;;281.90;2278.40;;;;;;4866809;29;20021;-81
2021/09/24 02:07:57;;;;;;;34.40;19.55;;;281.90;2278.40;;;;;;4868552;29;20281;-74
2021/09/24 02:10:23;;;;;;;;;;;281.70;2278.40;;;;;;4882656;29;20064;-79
2021/09/24 02:12:49;;;;;;;32.40;19.95;;;281.60;2278.40;;;;;;4868079;29;20014;-77
2021/09/24 02:15:15;;;;;;;33.90;18.92;;;281.60;2278.40;;;;;;4867732;29;20045;-76
2021/09/24 02:17:42;;;;;;;29.23;19.80;;;256.90;2252.80;;;;;;4867849;29;20033;-78
2021/09/24 02:20:09;;;;;;;32.25;18.55;;;256.60;2252.80;;;;;;4870642;29;20053;-76
2021/09/24 02:22:35;;;;;;;29.33;19.73;;;256.50;2252.80;;;;;;4870693;29;20021;-75
2021/09/24 02:25:01;;;;;;;33.60;19.20;;;256.30;2252.80;;;;;;4867768;29;20037;-78
2021/09/24 02:27:27;;;;;;;34.15;20.52;;;256.10;2252.80;;;;;;4866850;29;20153;-81
2021/09/24 02:29:52;;;;;;;;;;;231.30;2252.80;;;;;;4869166;29;20033;-75
2021/09/24 02:32:18;;;;;;;32.92;19.55;;;231.20;2252.80;;;;;;4857923;29;19916;-83
2021/09/24 02:34:44;;;;;;;;;;;231.20;2252.80;;;;;;4864489;29;20056;-80
2021/09/24 02:37:09;;;;;;;38.47;23.13;;;231.10;2252.80;;;;;;4869186;29;19914;-80
2021/09/24 02:39:35;;;;;;;;;;;231.10;2252.80;;;;;;4868047;29;20017;-75
2021/09/24 02:42:01;;;;;;;37.40;20.17;;;231.10;2252.80;;;;;;4865905;29;19928;-82
2021/09/24 02:44:27;;;;;;;39.35;21.05;;;231.00;2252.80;;;;;;4866898;29;20033;-82
2021/09/24 02:46:53;;;;;;;32.05;20.02;;;231.10;2252.80;;;;;;4867631;29;20405;-82
2021/09/24 02:49:18;;;;;;;;;;;231.10;2252.80;;;;;;4864050;29;20025;-83
2021/09/24 02:51:44;;;;;;;40.15;22.08;;;231.20;2252.80;;;;;;4868871;29;19943;-82
2021/09/24 02:54:09;;;;;;;;;;;231.20;2252.80;;;;;;4869691;29;20041;-78
2021/09/24 02:56:35;;;;;;;43.60;22.02;;;231.20;2252.80;;;;;;4876826;29;19975;-75
2021/09/24 02:59:01;;;;;;;;;;;231.20;2252.80;;;;;;4867100;29;20033;-78
2021/09/24 03:01:26;;;;;;;39.60;20.83;;;231.20;2252.80;;;;;;4869008;29;20029;-74
2021/09/24 03:03:52;;;;;;;;;;;231.30;2252.80;;;;;;4872402;29;20025;-75
2021/09/24 03:06:18;;;;;;;41.88;22.10;;;231.30;2252.80;;;;;;4870686;29;19908;-75
2021/09/24 03:08:44;;;;;;;;;;;256.10;2252.80;;;;;;4872230;29;20029;-77
2021/09/24 03:11:09;;;;;;;45.08;21.17;;;256.10;2252.80;;;;;;4869600;29;20287;-78
2021/09/24 03:13:35;;;;;;;;;;;256.10;2252.80;;;;;;4871012;29;20045;-83
2021/09/24 03:16:01;;;;;;;42.13;22.70;;;256.10;2252.80;;;;;;4870231;29;20349;-81
2021/09/24 03:18:27;;;;;;;36.65;21.65;;;231.30;2252.80;;;;;;4884583;29;20116;-77
2021/09/24 03:20:53;;;;;;;44.13;24.45;;;231.30;2252.80;;;;;;4871903;29;20037;-77
2021/09/24 03:23:20;;;;;;;38.63;22.23;;;231.30;2252.80;;;;;;4872167;29;20053;-79
2021/09/24 03:25:49;;;;;;;38.92;23.08;;;256.00;2252.80;;;;;;4871838;29;20057;-75
2021/09/24 03:28:16;;;;;;;41.38;23.92;;;256.10;2252.80;;;;;;4871809;29;20466;-83
2021/09/24 03:30:42;;;;;;;57.38;30.83;;;231.30;2252.80;;;;;;4869863;29;20025;-83
2021/09/24 03:33:08;;;;;;;60.72;30.85;;;231.20;2252.80;;;;;;4871551;29;20064;-76
2021/09/24 03:35:34;;;;;;;49.13;28.65;;;231.30;2252.80;;;;;;4871213;29;20112;-75
2021/09/24 03:38:00;;;;;;;49.58;26.17;;;256.00;2252.80;;;;;;4872247;29;20029;-75
2021/09/24 03:40:26;;;;;;;45.13;24.77;;;256.00;2252.80;;;;;;4886997;29;20040;-83
2021/09/24 03:42:52;;;;;;;40.90;24.20;;;231.20;2252.80;;;;;;4870844;29;20101;-75
2021/09/24 03:45:18;;;;;;;43.80;25.15;;;231.30;2252.80;;;;;;4885570;29;20031;-75
2021/09/24 03:47:43;;;;;;;;;;;231.30;2252.80;;;;;;4872818;29;20024;-76
2021/09/24 03:50:09;;;;;;;40.63;24.50;;;231.20;2252.80;;;;;;4861340;29;19912;-81
2021/09/24 03:52:35;;;;;;;36.63;21.85;;;231.00;2252.80;;;;;;4860737;29;20034;-77
2021/09/24 03:55:02;;;;;;;38.67;23.02;;;230.90;2252.80;;;;;;4861081;29;20064;-82
2021/09/24 03:57:28;;;;;;;42.42;23.88;;;231.00;2252.80;;;;;;4871510;29;20017;-75
2021/09/24 03:59:54;;;;;;;38.47;23.70;;;230.90;2252.80;;;;;;4873195;29;20390;-76
2021/09/24 04:02:20;;;;;;;38.33;23.17;;;231.00;2252.80;;;;;;4874237;29;20034;-76
2021/09/24 04:04:46;;;;;;;37.25;23.80;;;231.00;2252.80;;;;;;4871416;29;20021;-75
2021/09/24 04:07:12;;;;;;;;;;;231.10;2252.80;;;;;;4870577;29;20029;-76
2021/09/24 04:09:37;;;;;;;42.30;21.75;;;231.00;2252.80;;;;;;4869661;29;20383;-76
2021/09/24 04:12:04;;;;;;;;;;;230.90;2252.80;;;;;;4868177;29;20084;-77
2021/09/24 04:14:30;;;;;;;42.80;22.95;;;230.70;2252.80;;;;;;4871255;29;19922;-74
2021/09/24 04:16:55;;;;;;;;;;;230.70;2252.80;;;;;;4869612;29;20029;-78
2021/09/24 04:19:21;;;;;;;39.60;22.13;;;230.60;2252.80;;;;;;4854326;29;19908;-76
2021/09/24 04:21:47;;;;;;;;;;;230.80;2252.80;;;;;;4853503;29;20027;-75
2021/09/24 04:24:14;;;;;;;38.17;22.52;;;230.70;2252.80;;;;;;4871225;29;20412;-75
2021/09/24 04:26:39;;;;;;;42.95;23.83;;;230.70;2252.80;;;;;;4854022;29;20066;-78
2021/09/24 04:29:07;;;;;;;39.67;23.05;;;230.90;2252.80;;;;;;4869371;29;20034;-74
2021/09/24 04:31:33;;;;;;;39.47;23.20;;;230.90;2252.80;;;;;;4868940;29;20025;-75
2021/09/24 04:33:59;;;;;;;35.67;23.20;;;230.90;2252.80;;;;;;4871277;29;20037;-75
2021/09/24 04:36:26;;;;;;;33.58;22.80;;;230.90;2252.80;;;;;;4871640;29;20039;-74
2021/09/24 04:38:51;;;;;;;46.55;22.55;;;231.00;2252.80;;;;;;4869114;29;20029;-77
2021/09/24 04:41:17;;;;;;;35.55;23.08;;;231.10;2252.80;;;;;;4853579;29;20036;-78
2021/09/24 04:43:43;;;;;;;40.28;24.77;;;231.00;2252.80;;;;;;4865082;29;20509;-76
2021/09/24 04:46:09;;;;;;;;;;;231.10;2252.80;;;;;;4863550;29;20538;-75
2021/09/24 04:48:34;;;;;;;37.50;21.75;;;231.10;2252.80;;;;;;4869568;29;19919;-74
2021/09/24 04:51:02;;;;;;;;;;;231.20;2252.80;;;;;;4870245;29;20040;-77
2021/09/24 04:53:29;;;;;;;37.05;23.00;;;231.20;2252.80;;;;;;4868746;29;19916;-78
2021/09/24 04:55:55;;;;;;;41.00;23.23;;;231.20;2252.80;;;;;;4867811;29;20021;-75
2021/09/24 04:58:20;;;;;;;42.50;23.88;;;231.20;2252.80;;;;;;4868898;29;20082;-77
2021/09/24 05:00:48;;;;;;;46.58;24.45;;;231.20;2252.80;;;;;;4853946;29;20021;-77
2021/09/24 05:03:13;;;;;;;48.03;26.23;;;256.00;2252.80;;;;;;4852117;29;20391;-77
2021/09/24 05:05:39;;;;;;;33.28;22.40;;;231.30;2252.80;;;;;;4869937;29;20149;-79
2021/09/24 05:08:05;;;;;;;;;;;256.10;2252.80;;;;;;4868869;29;20032;-80
2021/09/24 05:10:30;;;;;;;40.80;23.50;;;256.00;2252.80;;;;;;4870979;29;20265;-80
2021/09/24 05:12:56;;;;;;;39.70;22.10;;;231.30;2252.80;;;;;;4849363;29;20060;-78
2021/09/24 05:15:22;;;;;;;38.92;23.75;;;231.20;2252.80;;;;;;4871559;29;20025;-77
2021/09/24 05:17:47;;;;;;;;;;;231.20;2252.80;;;;;;4853003;29;20036;-81
2021/09/24 05:20:13;;;;;;;41.70;24.40;;;231.20;2252.80;;;;;;4866005;29;19915;-83
2021/09/24 05:22:39;;;;;;;;;;;231.10;2252.80;;;;;;4853414;29;20116;-82
2021/09/24 05:25:05;;;;;;;36.95;24.20;;;231.20;2252.80;;;;;;4852542;29;19907;-82
2021/09/24 05:27:31;;;;;;;40.83;22.50;;;231.30;2252.80;;;;;;4870052;29;20021;-81
2021/09/24 05:29:57;;;;;;;35.33;22.80;;;231.30;2252.80;;;;;;4852675;29;20041;-82
2021/09/24 05:32:23;;;;;;;;;;;231.30;2252.80;;;;;;4869113;29;20100;-76
2021/09/24 05:34:48;;;;;;;48.20;24.80;;;231.30;2252.80;;;;;;4852014;29;19930;-78
2021/09/24 05:37:14;;;;;;;33.75;20.48;;;231.30;2252.80;;;;;;4871404;29;20030;-78
2021/09/24 05:39:42;;;;;;;;;;;256.00;2252.80;;;;;;4869770;29;20032;-77
2021/09/24 05:42:07;;;;;;;39.10;21.33;;;256.20;2252.80;;;;;;4859007;29;19931;-78
2021/09/24 05:44:33;;;;;;;36.55;22.52;;;256.20;2252.80;;;;;;4868302;29;20029;-82
2021/09/24 05:46:59;;;;;;;;;;;256.30;2252.80;;;;;;4852628;29;20092;-77
2021/09/24 05:49:29;;;;;;;29.98;21.10;;;256.50;2252.80;;;;;;4868064;29;19916;-80
2021/09/24 05:51:56;;;;;;;36.90;20.95;;;256.60;2252.80;;;;;;4851863;29;20386;-77
2021/09/24 05:54:22;;;;;;;32.78;20.77;;;256.80;2252.80;;;;;;4852298;29;20068;-76
2021/09/24 05:56:48;;;;;;;39.20;21.30;;;256.90;2252.80;;;;;;4853655;29;20028;-81
2021/09/24 05:59:13;;;;;;;40.25;22.85;;;281.60;2278.40;;;;;;4851235;29;20501;-76
2021/09/24 06:01:39;;;;;;;;;;;281.60;2278.40;;;;;;4852259;29;20501;-80
2021/09/24 06:04:05;;;;;;;36.00;21.13;;;281.70;2278.40;;;;;;4851299;29;19912;-80
2021/09/24 06:06:30;;;;;;;;;;;281.70;2278.40;;;;;;4851701;29;20575;-77
2021/09/24 06:08:58;;;;;;;32.70;20.85;;;281.90;2278.40;;;;;;4869775;29;19907;-75
2021/09/24 06:11:24;;;;;;;30.02;20.92;;;281.80;2278.40;;;;;;4852626;29;20121;-77
2021/09/24 06:13:50;;;;;;;32.08;21.65;;;282.10;2278.40;;;;;;4871397;29;20037;-76
2021/09/24 06:16:16;;;;;;;31.30;21.75;;;282.00;2278.40;;;;;;4873765;29;20410;-77
2021/09/24 06:18:41;;;;;;;;;;;282.20;2278.40;;;;;;4864491;29;20466;-78
2021/09/24 06:21:07;;;;;;;28.80;18.65;;;282.20;2278.40;;;;;;4872302;29;19912;-77
2021/09/24 06:23:33;;;;;;;;;;;282.30;2278.40;;;;;;4886942;29;20453;-78
2021/09/24 06:25:59;;;;;;;31.10;19.20;;;282.40;2278.40;;;;;;4886607;29;20000;-78
2021/09/24 06:28:28;;;;;;;35.72;19.52;;;307.20;2304.00;;;;;;4887300;29;20099;-76
2021/09/24 06:30:54;;;;;;;31.33;19.67;;;307.40;2304.00;;;;;;4888306;29;20088;-78
2021/09/24 06:33:20;;;;;;;31.33;18.90;;;307.60;2304.00;;;;;;4871113;29;20474;-76
2021/09/24 06:35:46;;;;;;;27.35;18.00;;;307.70;2304.00;;;;;;4887553;29;20032;-77
2021/09/24 06:38:12;;;;;;;23.55;17.35;;;307.70;2304.00;;;;;;4888396;29;20407;-77
2021/09/24 06:40:38;;;;;;;26.42;18.25;;;307.70;2304.00;;;;;;4882917;29;20027;-75
2021/09/24 06:43:03;;;;;;;30.73;17.17;;;307.80;2304.00;;;;;;4864653;29;20179;-77
2021/09/24 06:45:29;;;;;;;31.40;18.27;;;308.10;2304.00;;;;;;4891552;29;20025;-77
2021/09/24 06:47:55;;;;;;;32.83;17.52;;;332.80;2329.60;;;;;;4872923;29;20052;-76
2021/09/24 06:50:21;;;;;;;25.85;16.95;;;332.90;2329.60;;;;;;4874559;29;20029;-77
2021/09/24 06:52:47;;;;;;;24.95;15.70;;;333.10;2329.60;;;;;;4889241;29;20032;-77
2021/09/24 06:55:12;;;;;;;21.80;16.10;;;333.70;2329.60;;;;;;4871905;29;20374;-76
2021/09/24 06:57:38;;;;;;;24.33;16.58;;;333.40;2329.60;;;;;;4891618;29;20020;-77
2021/09/24 07:00:06;;;;;;;24.58;15.48;;;333.70;2329.60;;;;;;4890356;29;20029;-76
2021/09/24 07:02:32;;;;;;;26.73;15.43;;;358.40;2329.60;;;;;;4873219;29;20036;-77
2021/09/24 07:04:58;;;;;;;25.25;15.95;;;358.60;2329.60;;;;;;4884737;29;20035;-77
2021/09/24 07:07:24;;;;;;;22.27;13.73;;;358.70;2329.60;;;;;;4888081;29;20021;-78
2021/09/24 07:09:50;;;;;;;24.10;15.43;;;358.90;2329.60;;;;;;4872217;29;20108;-76
2021/09/24 07:12:16;;;;;;;21.02;14.68;;;359.00;2329.60;;;;;;4871436;29;20059;-76
2021/09/24 07:14:42;;;;;;;21.13;14.68;;;359.10;2329.60;;;;;;4870271;29;20029;-78
2021/09/24 07:17:08;;;;;;;26.35;15.55;;;359.10;2329.60;;;;;;4870140;29;20034;-77
2021/09/24 07:19:35;;;;;;;21.75;14.38;;;359.30;2329.60;;;;;;4886957;29;20481;-77
2021/09/24 07:22:00;;;;;;;22.40;13.52;;;384.10;2329.60;;;;;;4869311;29;20033;-77
2021/09/24 07:24:26;;;;;;;21.35;14.13;;;384.20;2329.60;;;;;;4870605;29;20022;-76
2021/09/24 07:26:52;;;;;;;26.13;13.95;;;384.30;2329.60;;;;;;4870559;29;20029;-77
2021/09/24 07:29:18;;;;;;;20.73;14.55;;;384.60;2329.60;;;;;;4870177;29;20538;-77
2021/09/24 07:31:43;;;;;;;18.70;13.20;;;384.60;2329.60;;;;;;4864622;29;20030;-76
2021/09/24 07:34:09;;;;;;;21.40;13.27;;;384.70;2329.60;;;;;;4870110;29;20053;-77
2021/09/24 07:36:35;;;;;;;20.15;13.88;;;384.80;2329.60;;;;;;4870624;29;20117;-76
2021/09/24 07:39:01;;;;;;;25.77;14.48;;;384.90;2329.60;;;;;;4867320;29;20033;-77
2021/09/24 07:41:27;;;;;;;21.52;14.50;;;409.60;2355.20;;;;;;4861810;29;20056;-79
2021/09/24 07:43:53;;;;;;;19.85;12.45;;;409.70;2355.20;;;;;;4862307;29;20581;-78
2021/09/24 07:46:21;;;;;;;19.05;11.93;;;409.80;2355.20;;;;;;4861112;29;20030;-77
2021/09/24 07:48:47;;;;;;;18.02;13.05;;;409.90;2355.20;;;;;;4859608;29;20029;-78
2021/09/24 07:51:14;;;;;;;15.02;10.68;;;410.00;2355.20;;;;;;4860309;29;20037;-76
2021/09/24 07:53:40;;;;;;;21.92;11.80;;;410.10;2355.20;;;;;;4860121;29;20050;-76
2021/09/24 07:56:07;;;;;;;17.02;11.10;;;410.50;2355.20;;;;;;4862051;29;20408;-77
2021/09/24 07:58:33;;;;;;;15.45;10.27;;;410.30;2355.20;;;;;;4861474;29;20487;-75
2021/09/24 08:00:59;;;;;;;16.30;10.93;;;410.30;2355.20;;;;;;4861653;29;20021;-76
2021/09/24 08:03:26;;;;;;;15.48;10.02;;;410.40;2355.20;;;;;;4860238;29;20457;-76
2021/09/24 08:05:52;;;;;;;15.35;11.20;;;410.50;2355.20;;;;;;4860137;29;20017;-76
2021/09/24 08:08:18;;;;;;;15.75;10.52;;;435.20;2355.20;;;;;;4861588;29;20482;-76
2021/09/24 08:10:43;;;;;;;13.55;10.38;;;435.30;2355.20;;;;;;4861378;29;20545;-76
2021/09/24 08:13:09;;;;;;;13.88;9.68;;;435.40;2355.20;;;;;;4874996;29;20053;-76
2021/09/24 08:15:36;;;;;;;15.57;9.43;;;435.50;2355.20;;;;;;4879756;29;20033;-76
2021/09/24 08:18:01;;;;;;;16.55;8.93;;;435.60;2355.20;;;;;;4887194;29;20029;-77
2021/09/24 08:20:27;;;;;;;19.35;9.65;;;435.60;2355.20;;;;;;4891204;29;20024;-76
2021/09/24 08:22:53;;;;;;;18.67;11.70;;;435.70;2355.20;;;;;;4880401;29;20041;-75
2021/09/24 08:25:22;;;;;;;14.88;9.15;;;435.80;2355.20;;;;;;4882922;29;20025;-77
2021/09/24 08:27:48;;;;;;;15.43;8.65;;;435.90;2355.20;;;;;;4887534;29;20100;-75
2021/09/24 08:30:16;;;;;;;11.55;8.15;;;435.90;2355.20;;;;;;4879410;29;20084;-76
2021/09/24 08:32:42;;;;;;;15.43;7.63;;;460.80;2380.80;;;;;;4862889;29;20044;-77
2021/09/24 08:35:11;;;;;;;9.25;6.05;;;460.90;2380.80;;;;;;4862604;29;20029;-77
2021/09/24 08:37:38;;;;;;;9.05;5.65;;;461.00;2355.20;;;;;;4863412;29;20076;-77
2021/09/24 08:40:06;;;;;;;15.75;6.95;;;461.20;2278.40;;;;;;4879762;29;20065;-76
2021/09/24 08:42:33;;;;;;;9.10;4.82;;;461.30;2278.40;;;;;;4867941;29;20025;-78
2021/09/24 08:44:59;;;;;;;13.95;4.93;;;461.40;2278.40;;;;;;4862786;29;20081;-79
2021/09/24 08:47:27;;;;;;;9.70;4.68;;;461.70;2304.00;;;;;;4862579;29;20025;-76
2021/09/24 08:49:53;;;;;;;11.13;4.68;;;486.40;2252.80;;;;;;4862688;29;20063;-77
2021/09/24 08:52:19;;;;;;;16.15;5.28;;;486.50;2227.20;;;;;;4862560;29;20112;-77
2021/09/24 08:54:45;;;;;;;7.53;5.10;;;486.70;2252.80;;;;;;4862808;29;20112;-77
2021/09/24 08:57:15;;;;;;;9.52;5.00;;;486.90;2176.00;;;;;;4879087;29;20029;-78
2021/09/24 08:59:41;;;;;;;10.45;5.10;;;487.00;2201.60;;;;;;4862310;29;20066;-79
2021/09/24 09:02:09;;;;;;;7.93;4.90;;;487.30;2176.00;;;;;;4862482;29;20124;-77
2021/09/24 09:04:42;;;;;;;10.48;5.10;;;487.20;2176.00;;;;;;4862466;29;20480;-78
2021/09/24 09:07:11;;;;;;;8.00;4.97;;;487.30;2201.60;;;;;;4862600;29;20055;-77
2021/09/24 09:09:40;;;;;;;8.63;5.05;;;512.00;2124.80;;;;;;4878898;29;20053;-78
2021/09/24 09:12:16;;;;;;;11.25;4.78;;;512.10;2150.40;;;;;;4861898;29;20052;-79
2021/09/24 09:15:00;;;;;;;11.35;4.43;;;512.30;2150.40;;;;;;4878801;29;20561;-77
2021/09/24 09:17:34;;;;;;;12.68;5.20;;;512.50;2150.40;;;;;;4862580;29;20028;-87
2021/09/24 09:20:22;;;;;;;6.78;4.03;;;512.60;2124.80;;;;;;4862795;29;20029;-83
2021/09/24 09:23:00;;;;;;;7.38;4.15;;;512.80;2099.20;;;;;;4862860;29;20485;-79
2021/09/24 09:25:27;;;;;;;7.18;4.57;;;512.80;2099.20;;;;;;4868194;29;20029;-83
2021/09/24 09:27:59;;;;;;;7.78;4.68;;;537.60;2124.80;;;;;;4879269;29;20028;-82
2021/09/24 09:30:25;;;;;;;9.00;5.25;;;537.70;2099.20;;;;;;4862498;29;20482;-79
2021/09/24 09:32:59;;;;;;;9.98;6.55;;;537.90;2099.20;;;;;;4862327;29;20033;-77
2021/09/24 09:35:25;;;;;;;12.30;6.65;;;538.00;2073.60;;;;;;4877542;29;20581;-82
2021/09/24 09:37:52;;;;;;;8.23;3.88;;;;;;;;;;4878662;29;20470;-75
2021/09/24 09:40:21;;;;;;;10.13;4.05;;;538.20;2048.00;;;;;;4862138;29;20033;-82
2021/09/24 09:42:48;;;;;;;7.68;4.07;;;538.40;2048.00;;;;;;4863640;29;20029;-82
2021/09/24 09:45:17;;;;;;;6.53;3.63;;;538.50;2048.00;;;;;;4878403;29;20112;-76
2021/09/24 09:47:47;;;;;;;7.60;3.70;;;563.20;2048.00;;;;;;4878800;29;20028;-79
2021/09/24 09:50:26;;;;;;;7.30;3.65;;;563.30;2022.40;;;;;;4861617;29;20073;-77
2021/09/24 09:53:16;;;;;;;7.20;4.18;;;563.40;2022.40;;;;;;4862140;29;20037;-78
2021/09/24 09:55:47;;;;;;;6.35;3.85;;;;;;;;;;4878445;29;20482;-80
2021/09/24 09:58:13;;;;;;;6.55;3.38;;;563.70;1971.20;;;;;;4878355;29;20033;-76
2021/09/24 10:01:03;;;;;;;5.93;3.20;;;563.80;1971.20;;;;;;4861567;29;20085;-78
2021/09/24 10:03:31;;;;;;;11.05;3.70;;;564.00;1971.20;;;;;;4861251;29;20127;-77
2021/09/24 10:05:58;;;;;;;7.70;3.35;;;564.00;1920.00;;;;;;4877893;29;20100;-78
2021/09/24 10:08:26;;;;;;;7.82;3.33;;;564.10;1920.00;;;;;;4871681;29;20032;-79
2021/09/24 10:11:04;;;;;;;7.10;3.90;;;588.80;1945.60;;;;;;4883988;29;20019;-78
2021/09/24 10:13:37;;;;;;;11.40;3.65;;;589.00;1894.40;;;;;;4879850;29;20140;-80
2021/09/24 10:16:04;;;;;;;5.38;3.55;;;589.10;1868.80;;;;;;4878246;29;20033;-78
2021/09/24 10:18:32;;;;;;;7.25;4.18;;;589.30;1868.80;;;;;;4878204;29;20060;-79
2021/09/24 10:20:58;;;;;;;14.45;9.13;;;589.50;1843.20;;;;;;4880084;29;20080;-79
2021/09/24 10:23:23;;;;;;;6.13;3.90;;;589.50;1792.00;;;;;;4888142;29;20037;-78
2021/09/24 10:25:56;;;;;;;13.63;3.45;;;589.60;1817.60;;;;;;4868827;29;20027;-78
2021/09/24 10:28:28;;;;;;;7.55;4.10;;;614.40;1766.40;;;;;;4885454;29;20021;-78
2021/09/24 10:30:55;;;;;;;11.70;6.55;;;614.50;1817.60;;;;;;4877907;29;20028;-77
2021/09/24 10:33:41;;;;;;;7.22;4.18;;;614.40;1792.00;;;;;;4861151;29;20085;-76
2021/09/24 10:36:07;;;;;;;6.25;3.35;;;614.50;1766.40;;;;;;4860845;29;20025;-76
2021/09/24 10:38:43;;;;;;;11.70;3.38;;;614.70;1740.80;;;;;;4868019;29;20029;-77
2021/09/24 10:41:13;;;;;;;5.93;3.75;;;614.80;1715.20;;;;;;4887369;29;20089;-78
2021/09/24 10:43:43;;;;;;;7.55;4.60;;;;;;;;;;4870607;29;20071;-78
2021/09/24 10:46:27;;;;;;;6.28;4.10;;;615.10;1715.20;;;;;;4884218;29;20581;-78
2021/09/24 10:49:16;;;;;;;8.82;3.67;;;615.00;1715.20;;;;;;4883783;29;20029;-79
2021/09/24 10:51:57;;;;;;;7.38;3.58;;;640.00;1715.20;;;;;;4880537;29;20059;-79
2021/09/24 10:54:25;;;;;;;4.88;3.13;;;640.10;1638.40;;;;;;4870322;29;20056;-79
2021/09/24 10:57:02;;;;;;;5.05;3.67;;;640.10;1638.40;;;;;;4855298;29;20021;-78
2021/09/24 10:59:31;;;;;;;5.47;3.20;;;640.30;1612.80;;;;;;4861011;29;20145;-79
2021/09/24 11:01:58;;;;;;;5.22;3.50;;;640.30;1638.40;;;;;;4877710;29;20026;-80
2021/09/24 11:04:43;;;;;;;5.57;3.60;;;640.50;1612.80;;;;;;4860783;29;20029;-78
2021/09/24 11:07:09;;;;;;;9.02;3.70;;;640.50;1587.20;;;;;;4854962;29;20041;-77
2021/09/24 11:09:53;;;;;;;6.80;3.28;;;640.60;1587.20;;;;;;4861076;29;20037;-78
2021/09/24 11:12:19;;;;;;;8.75;3.78;;;640.70;1587.20;;;;;;4852338;29;20760;-79
2021/09/24 11:14:45;;;;;;;4.70;3.38;;;640.80;1587.20;;;;;;4857823;29;20044;-79
2021/09/24 11:17:32;;;;;;;6.40;3.72;;;665.60;1612.80;;;;;;4858935;29;20033;-79
2021/09/24 11:19:58;;;;;;;5.80;3.60;;;665.70;1587.20;;;;;;4857366;29;20061;-79
2021/09/24 11:22:37;;;;;;;7.43;3.78;;;665.90;1587.20;;;;;;4857866;29;20072;-79
2021/09/24 11:25:09;;;;;;;6.40;3.53;;;666.20;1612.80;;;;;;4862175;29;20167;-79
2021/09/24 11:27:41;;;;;;;6.32;3.75;;;666.30;1561.60;;;;;;4871876;29;20021;-78
2021/09/24 11:30:07;;;;;;;4.93;3.50;;;666.30;1561.60;;;;;;4865068;29;20096;-78
2021/09/24 11:32:37;;;;;;;7.93;3.42;;;666.30;1536.00;;;;;;4862169;29;20037;-78
2021/09/24 11:35:04;;;;;;;8.88;3.70;;;666.40;1536.00;;;;;;4872302;29;20136;-78
2021/09/24 11:37:32;;;;;;;6.25;3.00;;;666.50;1536.00;;;;;;4861927;29;20029;-79
2021/09/24 11:40:08;;;;;;;5.95;3.50;;;666.40;1536.00;;;;;;4862121;29;20034;-78
2021/09/24 11:42:37;;;;;;;4.78;3.13;;;666.50;1536.00;;;;;;4860655;29;20091;-79
2021/09/24 11:45:07;;;;;;;5.95;3.92;;;691.20;1510.40;;;;;;4861831;29;20045;-79
2021/09/24 11:47:39;;;;;;;5.93;3.17;;;691.20;1510.40;;;;;;4862230;29;20478;-79
2021/09/24 11:50:12;;;;;;;5.63;3.58;;;691.30;1484.80;;;;;;4860512;29;20034;-79
2021/09/24 11:52:39;;;;;;;7.03;3.00;;;691.30;1510.40;;;;;;4861482;29;20021;-79
2021/09/24 11:55:17;;;;;;;5.10;2.78;;;691.40;1484.80;;;;;;4860175;29;20113;-78
2021/09/24 11:57:55;;;;;;;6.63;3.78;;;691.30;1459.20;;;;;;4850405;29;20062;-79
2021/09/24 12:00:23;;;;;;;6.53;3.30;;;691.40;1484.80;;;;;;4861701;29;20028;-79
2021/09/24 12:02:48;;;;;;;4.47;2.90;;;691.40;1459.20;;;;;;4861515;29;20050;-79
2021/09/24 12:05:14;;;;;;;4.72;3.17;;;691.40;1433.60;;;;;;4860046;29;20515;-78
2021/09/24 12:07:49;;;;;;;7.07;3.17;;;691.40;1459.20;;;;;;4865262;29;20104;-78
2021/09/24 12:10:16;;;;;;;4.47;2.80;;;691.70;1459.20;;;;;;4869207;29;20105;-78
2021/09/24 12:12:44;;;;;;;6.28;3.97;;;691.50;1433.60;;;;;;4878354;29;20525;-79
2021/09/24 12:15:10;;;;;;;6.43;3.10;;;691.40;1408.00;;;;;;4863235;29;20059;-79